Beachs Corner, Idaho
Current Conditions -  °F | °C
As of 11:53 AM on Thursday 23 Oct 2014 (Local Time) from KIDA Reporting Station
Overcast Overcast  
Wind Chill: 56°   Ceiling: 11000
Heat Index: 56°   Visibility: 10mi
Dew Point: 31°   Wind: 8mph
Humidity: 39%   Direction: 220°SW
Pressure: 30.14"   Gusts: NA
Location:  43.498°N, 111.73°W
Report Text: KIDA 231753Z 22007KT 10SM OVC110 13/M01 A3014 RMK AO2 SLP199 T01331006 10133 20044 50008
Loading
Personal Weather Stations






























Interactive Weather Map
Tropical Storm Tracking
New forecast layout! Learn more

10-Day Weather Forecast

Advertisements
Track Severe Weather on mobile